Hoppa till innehåll

METAR väder och rapporter - ESGG

Nedan listas information från vald flygplats. Andra METARs finns längre ned på sidan. Kontakta oss om någon saknas eller skriv in egen ICAO-kod.

Andra intressanta METARs

Klicka på önskad rubrik nedan för att visa nuvarande väder för den platsen.

Avstånd från stationen: NO 27kmESGG - Göteborg (Landvetter)
Uppdaterad: 2021-07-26 16:50
 Vind från OSO
Vind: OSO 11 km/h
Temperatur: 25°C
Daggpunkt: 16°C
Luftfuktighet: 57%
Barometer: 1013 hPa
Summering: Klart
Sikt: mer än 10 km
2021/07/26 14:50 ESGG 261450Z 11006KT CAVOK 25/16 Q1013
Klart
Klart
  Visa detaljer för Göteborg (Landvetter)
Avstånd från stationen: N 28kmESGP - Göteborg (Säve)
Uppdaterad: 2021-07-26 17:28
 
unable to load ESGP data RC=404 Not Found
unable to load ESGP data RC=404 Not Found
  Visa detaljer för Göteborg (Säve)
Avstånd från stationen: NO 419kmESSA - Stockholm (Arlanda)
Uppdaterad: 2021-07-26 16:50
 Vind från O
Vind: O 19 km/h
Temperatur: 25°C
Daggpunkt: 12°C
Luftfuktighet: 44%
Barometer: 1017 hPa
Summering: Klart
Sikt: mer än 10 km
2021/07/26 14:50 ESSA 261450Z 09010KT CAVOK 25/12 Q1017 NOSIG
Klart
Klart
  Visa detaljer för Stockholm (Arlanda)
Avstånd från stationen: ONO 404kmESSB - Stockholm (Bromma)
Uppdaterad: 2021-07-26 16:50
 Vind från OSO
Vind: OSO 17 km/h
Temperatur: 26°C
Daggpunkt: 12°C
Luftfuktighet: 42%
Barometer: 1017 hPa
Summering: Klart
Sikt: mer än 10 km
2021/07/26 14:50 ESSB 261450Z 12009KT CAVOK 26/12 Q1017
Klart
Klart
  Visa detaljer för Stockholm (Bromma)
Avstånd från stationen: ONO 323kmESKN - Stockholm (Skavsta)
Uppdaterad: 2021-07-26 16:50
 Vind från O
Vind: O 24 km/h
Temperatur: 25°C
Daggpunkt: 14°C
Luftfuktighet: 51%
Barometer: 1017 hPa
Summering: Klart
Sikt: mer än 10 km
2021/07/26 14:50 ESKN 261450Z 09013KT CAVOK 25/14 Q1017
Klart
Klart
  Visa detaljer för Stockholm (Skavsta)
Avstånd från stationen: SSO 238kmESMS - Malmö flygplats (Sturup)
Uppdaterad: 2021-07-26 16:50
 Vind från SSO
Vind: SSO 19 km/h
Temperatur: 28°C
Värmeindex: 28°C
Daggpunkt: 15°C
Luftfuktighet: 45%
Barometer: 1011 hPa
Summering: Klart
Sikt: mer än 10 km
2021/07/26 14:50 ESMS 261450Z 15010KT CAVOK 28/15 Q1011
Klart
Klart
  Visa detaljer för Malmö flygplats (Sturup)
Avstånd från stationen: O 382kmESSV - Visby flygplats
Uppdaterad: 2021-07-26 16:50
 Vind från O
Vind: O 20 km/h
Temperatur: 27°C
Värmeindex: 28°C
Daggpunkt: 16°C
Luftfuktighet: 51%
Barometer: 1016 hPa
Summering: Klart
Sikt: mer än 10 km
2021/07/26 14:50 ESSV 261450Z 10011KT CAVOK 27/16 Q1016
Klart
Klart
  Visa detaljer för Visby flygplats
Avstånd från stationen: NNO 92kmESGT - Trollhättan
Uppdaterad: 2021-07-26 06:50
Ej aktuell
 Vind från varierande
Vind: varierande 4 km/h
Temperatur: 18°C
Daggpunkt: 13°C
Luftfuktighet: 73%
Barometer: 1015 hPa
Moln: Klart
Sikt: 10 km
2021/07/26 04:50 ESGT 260450Z AUTO VRB02KT 9999 NCD 18/13 Q1015
Klart
Klart
  Visa detaljer för Trollhättan
Avstånd från stationen: ONO 129kmESGJ - Jönköpings flygplats
Uppdaterad: 2021-07-26 16:50
 Vind från O
Vind: O 15 km/h
Temperatur: 27°C
Värmeindex: 28°C
Daggpunkt: 16°C
Luftfuktighet: 51%
Barometer: 1013 hPa
Moln: Klart
Sikt: 10 km
2021/07/26 14:50 ESGJ 261450Z AUTO 10008KT 060V130 9999 NCD 27/16 Q1013
Klart
Klart
  Visa detaljer för Jönköpings flygplats
Avstånd från stationen: NNO 229kmESOK - Karlstad
Uppdaterad: 2021-07-26 16:50
 Vind från N
Vind: N 9 km/h
Temperatur: 18°C
Daggpunkt: 18°C
Luftfuktighet: 100%
Barometer: 1017 hPa
Summering: Lätt regn, Showers
Moln: Övervägande molnigt
Sikt: 10 km
Molninformation: Övervägande molnigt 366 m
2021/07/26 14:50 ESOK 261450Z 01005KT 330V050 9999 -SHRA BKN012CB 18/18 Q1017
Lätt regn, Showers, Övervägande molnigt
Lätt regn
Showers
Övervägande molnigt
  Visa detaljer för Karlstad
Avstånd från stationen: N 643kmESNZ - Östersund (Frösön)
Uppdaterad: 2021-07-26 16:50
 Vind från SSV
Vind: SSV 13 km/h
Temperatur: 26°C
Daggpunkt: 10°C
Luftfuktighet: 37%
Barometer: 1017 hPa
Moln: Klart
Sikt: 10 km
2021/07/26 14:50 ESNZ 261450Z AUTO 21007KT 170V230 9999 NCD 26/10 Q1017
Klart
Klart
  Visa detaljer för Östersund (Frösön)
Avstånd från stationen: SSO 216kmEKCH - Köpenhamn (Kastrup)
Uppdaterad: 2021-07-26 11:50
Ej aktuell
 Vind från S
Vind: S 13 km/h
Temperatur: 25°C
Daggpunkt: 16°C
Luftfuktighet: 57%
Barometer: 1012 hPa
Moln: Klart
Sikt: 10 km
2021/07/26 09:50 EKCH 260950Z AUTO 17007KT 9999 NCD 25/16 Q1012 NOSIG
Klart
Klart
  Visa detaljer för Köpenhamn (Kastrup)
Avstånd från stationen: SV 263kmEKBI - Billund Airport
Uppdaterad: 2021-07-26 16:50
 Vind från SV
Vind: SV 7 km/h
Temperatur: 24°C
Daggpunkt: 19°C
Luftfuktighet: 74%
Barometer: 1010 hPa
Summering: Light thunderstorm, Regn
Moln: Övervägande molnigt
Sikt: 10 km
Molninformation: Övervägande molnigt 1006 m
2021/07/26 14:50 EKBI 261450Z 23004KT 200V260 9999 -TSRA BKN033CB 24/19 Q1010
Light thunderstorm, Regn, Övervägande molnigt
Light thunderstorm
Regn
Övervägande molnigt
  Visa detaljer för Billund Airport
Avstånd från stationen: N 302kmENGM - Oslo (Gardermoen)
Uppdaterad: 2021-07-26 16:50
 Vind från OSO
Vind: OSO 17 km/h
Temperatur: 25°C
Daggpunkt: 11°C
Luftfuktighet: 42%
Barometer: 1015 hPa
Summering: Klart
Sikt: mer än 10 km
2021/07/26 14:50 ENGM 261450Z 11009KT 060V150 CAVOK 25/11 Q1015 NOSIG
Klart
Klart
  Visa detaljer för Oslo (Gardermoen)
Avstånd från stationen: NO 540kmEFMA - Mariehamn / Åland
Uppdaterad: 2021-07-26 16:50
 Vind från SSO
Vind: SSO 15 km/h
Temperatur: 26°C
Daggpunkt: 13°C
Luftfuktighet: 45%
Barometer: 1019 hPa
Summering: Klart
Sikt: mer än 10 km
2021/07/26 14:50 EFMA 261450Z 16008KT 120V190 CAVOK 26/13 Q1019
Klart
Klart
  Visa detaljer för Mariehamn / Åland
Avstånd från stationen: S 558kmEDDT - Berlin (Tegel), Germany
Uppdaterad: 2021-07-26 17:28
 
unable to load EDDT data RC=404 Not Found
unable to load EDDT data RC=404 Not Found
  Visa detaljer för Berlin (Tegel), Germany
Avstånd från stationen: SV 737kmEHAM - Amsterdam (Schiphol)
Uppdaterad: 2021-07-26 16:55
 Vind från V
Vind: V 13 km/h
Temperatur: 22°C
Daggpunkt: 18°C
Luftfuktighet: 78%
Barometer: 1009 hPa
Summering: Lätt regn, Showers
Moln: Några få moln
Sikt: 8 km
Molninformation: Några få moln 305 m
Delvis molnigt 457 m
Några få moln 914 m
2021/07/26 14:55 EHAM 261455Z 26007KT 220V310 8000 -SHRA FEW010 SCT015 FEW030TCU 22/18 Q1009 NOSIG
Lätt regn, Showers, Några få moln
Lätt regn
Showers
Några få moln
  Visa detaljer för Amsterdam (Schiphol)
Avstånd från stationen: ONO 808kmEFHK - Helsingfors (Vantaa)
Uppdaterad: 2021-07-26 16:50
 Vind från S
Vind: S 17 km/h
Temperatur: 28°C
Daggpunkt: 10°C
Luftfuktighet: 32%
Barometer: 1019 hPa
Summering: Klart
Sikt: mer än 10 km
2021/07/26 14:50 EFHK 261450Z 18009KT CAVOK 28/10 Q1019 NOSIG
Klart
Klart
  Visa detaljer för Helsingfors (Vantaa)
Avstånd från stationen: SSV 537kmEDDW - Bremen
Uppdaterad: 2021-07-26 16:50
 Vind från S
Vind: S 17 km/h
Temperatur: 27°C
Värmeindex: 27°C
Daggpunkt: 14°C
Luftfuktighet: 45%
Barometer: 1009 hPa
Moln: Några få moln
Sikt: 10 km
Molninformation: Några få moln 1524 m
2021/07/26 14:50 EDDW 261450Z 19009KT 170V240 9999 FEW050CB 27/14 Q1009 NOSIG
Några få moln
Några få moln
  Visa detaljer för Bremen
Avstånd från stationen: SSV 861kmEDDF - Frankfurt am Main
Uppdaterad: 2021-07-26 16:50
 Vind från S
Vind: S 15 km/h
Temperatur: 26°C
Daggpunkt: 16°C
Luftfuktighet: 54%
Barometer: 1011 hPa
Moln: Några få moln
Sikt: 10 km
Molninformation: Några få moln 1067 m
2021/07/26 14:50 EDDF 261450Z 17008KT 140V210 9999 FEW035CB 26/16 Q1011 NOSIG
Några få moln
Några få moln
  Visa detaljer för Frankfurt am Main
Avstånd från stationen: SV 880kmEBBR - Bryssel international
Uppdaterad: 2021-07-26 16:50
 Vind från SV
Vind: SV 20 km/h
Temperatur: 21°C
Daggpunkt: 15°C
Luftfuktighet: 69%
Barometer: 1011 hPa
Moln: Några få moln
Sikt: 10 km
Molninformation: Några få moln 671 m
2021/07/26 14:50 EBBR 261450Z 23011KT 9999 FEW022TCU 21/15 Q1011 NOSIG
Några få moln
Några få moln
  Visa detaljer för Bryssel international
Avstånd från stationen: SV 738kmEHAM - Amsterdam (Schiphol)
Uppdaterad: 2021-07-26 16:55
 Vind från V
Vind: V 13 km/h
Temperatur: 22°C
Daggpunkt: 18°C
Luftfuktighet: 78%
Barometer: 1009 hPa
Summering: Lätt regn, Showers
Moln: Några få moln
Sikt: 8 km
Molninformation: Några få moln 305 m
Delvis molnigt 457 m
Några få moln 914 m
2021/07/26 14:55 EHAM 261455Z 26007KT 220V310 8000 -SHRA FEW010 SCT015 FEW030TCU 22/18 Q1009 NOSIG
Lätt regn, Showers, Några få moln
Lätt regn
Showers
Några få moln
  Visa detaljer för Amsterdam (Schiphol)
Avstånd från stationen: SV 1044kmEGLL - London (Heathrow)
Uppdaterad: 2021-07-26 16:50
 Vind från SSV
Vind: SSV 9 km/h
Temperatur: 23°C
Daggpunkt: 14°C
Luftfuktighet: 57%
Barometer: 1009 hPa
Moln: Några få moln
Sikt: 10 km
Molninformation: Några få moln 1433 m
2021/07/26 14:50 EGLL 261450Z 20005KT 160V270 9999 FEW047 23/14 Q1009 NOSIG
Några få moln
Några få moln
  Visa detaljer för London (Heathrow)
Avstånd från stationen: SV 1132kmLFPG - Paris (Charles de Gaulle)
Uppdaterad: 2021-07-26 17:00
 Vind från V
Vind: V 19 km/h
Temperatur: 25°C
Daggpunkt: 15°C
Luftfuktighet: 54%
Barometer: 1012 hPa
Moln: Delvis molnigt
Sikt: 10 km
Molninformation: Några få moln 1067 m
Delvis molnigt 1067 m
2021/07/26 15:00 LFPG 261500Z 26010KT 230V290 9999 FEW035CB SCT035 25/15 Q1012 NOSIG
Delvis molnigt
Delvis molnigt
  Visa detaljer för Paris (Charles de Gaulle)
Avstånd från stationen: SSV 1142kmLSZH - Zürich Airport
Uppdaterad: 2021-07-26 16:50
 Vind från SSV
Vind: SSV 9 km/h
Temperatur: 20°C
Daggpunkt: 17°C
Luftfuktighet: 83%
Barometer: 1014 hPa
Moln: Några få moln
Sikt: 10 km
Molninformation: Några få moln 549 m
2021/07/26 14:50 LSZH 261450Z 21005KT 160V240 9999 FEW018 20/17 Q1014 NOSIG
Några få moln
Några få moln
  Visa detaljer för Zürich Airport
Avstånd från stationen: S 1749kmLIRF - Rome Airport (Fiumicino - Leonardo da Vinci)
Uppdaterad: 2021-07-26 16:50
 Vind från S
Vind: S 15 km/h
Temperatur: 30°C
Värmeindex: 29°C
Daggpunkt: 15°C
Luftfuktighet: 40%
Barometer: 1015 hPa
Moln: Några få moln
Sikt: 10 km
Molninformation: Några få moln 1524 m
2021/07/26 14:50 LIRF 261450Z 18008KT 140V200 9999 FEW050 30/15 Q1015 TEMPO 4000 SHRA
Några få moln
Några få moln
  Visa detaljer för Rome Airport (Fiumicino - Leonardo da Vinci)
Avstånd från stationen: SO 2679kmLTAI - Antalya
Uppdaterad: 2021-07-26 16:50
 Vind från S
Vind: S 20 km/h
Temperatur: 36°C
Daggpunkt: 13°C
Luftfuktighet: 25%
Barometer: 1008 hPa
Moln: Några få moln
Sikt: 10 km
Molninformation: Några få moln 914 m
2021/07/26 14:50 LTAI 261450Z 19011KT 9999 FEW030 36/13 Q1008 NOSIG RMK RWY18C 19011KT 130V230 RWY36R 19010KT RWY18L 20012KT
Några få moln
Några få moln
  Visa detaljer för Antalya
Avstånd från stationen: VSV 6074kmKJFK - New Your (JFK)
Uppdaterad: 2021-07-26 16:51
 Vind från NNV
Vind: NNV 15 km/h
Temperatur: 30°C
Värmeindex: 31°C
Daggpunkt: 18°C
Luftfuktighet: 49%
Barometer: 1012.5 hPa
Moln: Övervägande molnigt
Sikt: 14 km
Molninformation: Övervägande molnigt 8534 m
2021/07/26 14:51 KJFK 261451Z 34008KT 9SM BKN280 30/18 A2990 RMK AO2 SLP124 T03000178 51002
Övervägande molnigt
Övervägande molnigt
  Visa detaljer för New Your (JFK)
Avstånd från stationen: VSV 8848kmKLAX - Los Angeles International Airport
Uppdaterad: 2021-07-26 16:53
 Vind från calm
Vind: Vindstilla
Temperatur: 19°C
Daggpunkt: 18°C
Luftfuktighet: 94%
Barometer: 1014.2 hPa
Moln: Genommulet
Sikt: 11 km
Molninformation: Delvis molnigt 274 m
Genommulet 762 m
2021/07/26 14:53 KLAX 261453Z 00000KT 7SM SCT009 OVC025 19/18 A2995 RMK AO2 RAE26 SLP141 SCT V BKN P0000 60009 T01940183 51021 $
Genommulet
Genommulet
  Visa detaljer för Los Angeles International Airport
Avstånd från stationen: SO 4968kmOMDB - Dubai International Airport
Uppdaterad: 2021-07-26 17:00
 Vind från NNV
Vind: NNV 13 km/h
Temperatur: 38°C
Daggpunkt: 21°C
Luftfuktighet: 37%
Barometer: 996 hPa
Moln: Delvis molnigt
Sikt: 8 km
2021/07/26 15:00 OMDB 261500Z 34007KT 8000 NSC 38/21 Q0996 NOSIG
Delvis molnigt
Delvis molnigt
  Visa detaljer för Dubai International Airport
Avstånd från stationen: OSO 8570kmRJTT - Tokyo International Airport
Uppdaterad: 2021-07-26 17:00
 Vind från NNO
Vind: NNO 30 km/h
Temperatur: 26°C
Daggpunkt: 20°C
Luftfuktighet: 70%
Barometer: 1000 hPa
Summering: Lätt regn, Showers
Moln: Övervägande molnigt
Sikt: 10 km
Molninformation: Några få moln 457 m
Övervägande molnigt 1524 m
Övervägande molnigt 2134 m
2021/07/26 15:00 RJTT 261500Z 02016KT 9999 -SHRA FEW015 BKN050 BKN070 26/20 Q1000 NOSIG
Lätt regn, Showers, Övervägande molnigt
Lätt regn
Showers
Övervägande molnigt
  Visa detaljer för Tokyo International Airport
Avstånd från stationen: OSO 7125kmZBAA - Peking (Beijing Capital)
Uppdaterad: 2021-07-26 17:00
 Vind från NO
Vind: NO 14 km/h
Temperatur: 25°C
Daggpunkt: 25°C
Luftfuktighet: 100%
Barometer: 1001 hPa
Summering: Lätt regn, Showers
Moln: Några få moln
Sikt: 6 km
Molninformation: Några få moln 305 m
Delvis molnigt 610 m
Några få moln 1524 m
2021/07/26 15:00 ZBAA 261500Z 05004MPS 020V120 6000 -SHRA FEW010 SCT020 FEW050CB 25/25 Q1001 RETSRA BECMG TL1540 TS
Lätt regn, Showers, Några få moln
Lätt regn
Showers
Några få moln
  Visa detaljer för Peking (Beijing Capital)
VÄDER KURIOSA -  RecyclingThe average household throws away 13,000 separate pieces of paper each year. Most is packaging and junk mail.